Time;durP1;ratioP1;P1;durP2;ratioP2;P2;SDS_P1;SDS_P2;PMS_P1;PMS_P2;Temp;Humidity;BMP_temperature;BMP_pressure;BME280_temperature;BME280_humidity;BME280_pressure;Samples;Min_cycle;Max_cycle;Signal;HPM_P1;HPM_P2
2023/05/01 00:00:11;;;;;;;12.30;4.70;;;10.30;37.00;;;;;;5079779;27;46378;-70
2023/05/01 00:02:37;;;;;;;7.10;4.93;;;10.20;37.00;;;;;;5077863;27;46728;-70
2023/05/01 00:05:03;;;;;;;6.47;4.30;;;10.20;37.10;;;;;;5077121;28;46530;-70
2023/05/01 00:07:29;;;;;;;7.27;4.53;;;10.20;37.30;;;;;;5079634;28;48645;-69
2023/05/01 00:09:56;;;;;;;6.53;4.70;;;10.10;37.30;;;;;;5081575;28;45784;-69
2023/05/01 00:12:22;;;;;;;7.33;4.90;;;10.10;37.30;;;;;;5078962;27;46549;-69
2023/05/01 00:14:48;;;;;;;6.90;5.13;;;10.10;37.50;;;;;;5077343;28;47392;-69
2023/05/01 00:17:14;;;;;;;8.60;4.33;;;10.10;37.30;;;;;;5079050;28;46291;-70
2023/05/01 00:19:40;;;;;;;5.80;4.40;;;10.20;37.20;;;;;;5077510;28;46348;-69
2023/05/01 00:22:06;;;;;;;10.10;5.33;;;10.10;37.30;;;;;;5077836;28;46362;-69
2023/05/01 00:24:32;;;;;;;11.40;4.83;;;10.10;37.60;;;;;;5078042;28;46353;-69
2023/05/01 00:26:58;;;;;;;8.20;5.03;;;10.00;37.70;;;;;;5079051;28;47081;-69
2023/05/01 00:29:24;;;;;;;6.90;5.20;;;10.00;37.70;;;;;;5077528;28;45888;-69
2023/05/01 00:31:49;;;;;;;6.10;4.33;;;10.00;37.70;;;;;;5076333;28;46363;-69
2023/05/01 00:34:15;;;;;;;8.07;5.03;;;10.00;37.70;;;;;;5077066;28;46634;-69
2023/05/01 00:36:41;;;;;;;8.50;5.43;;;10.00;37.70;;;;;;5077336;28;46314;-69
2023/05/01 00:39:07;;;;;;;7.60;4.50;;;9.90;38.90;;;;;;5077824;28;46365;-69
2023/05/01 00:41:33;;;;;;;7.20;4.67;;;9.90;38.90;;;;;;5075925;28;46419;-69
2023/05/01 00:43:59;;;;;;;10.20;5.80;;;9.90;39.10;;;;;;5080138;28;45819;-70
2023/05/01 00:46:25;;;;;;;8.50;5.00;;;9.90;39.30;;;;;;5077060;28;46341;-70
2023/05/01 00:48:51;;;;;;;12.07;5.23;;;9.80;39.20;;;;;;5078738;28;46290;-69
2023/05/01 00:51:18;;;;;;;10.60;5.77;;;9.80;39.20;;;;;;5076925;28;46427;-70
2023/05/01 00:53:44;;;;;;;11.40;5.30;;;9.70;39.20;;;;;;5077248;28;47117;-70
2023/05/01 00:56:10;;;;;;;9.40;5.30;;;9.60;39.60;;;;;;5078058;28;46616;-70
2023/05/01 00:58:37;;;;;;;10.90;5.47;;;9.50;40.00;;;;;;5069547;27;46426;-70
2023/05/01 01:01:04;;;;;;;11.10;5.37;;;9.40;40.50;;;;;;5079544;28;46384;-70
2023/05/01 01:03:30;;;;;;;7.60;5.20;;;9.30;41.00;;;;;;5079501;28;46631;-70
2023/05/01 01:06:19;;;;;;;8.00;5.43;;;9.30;41.10;;;;;;5079882;28;46465;-69
2023/05/01 01:09:23;;;;;;;7.23;4.93;;;9.20;41.30;;;;;;5080838;28;47252;-70
2023/05/01 01:12:22;;;;;;;12.93;5.60;;;9.20;41.60;;;;;;5079159;28;46671;-69
2023/05/01 01:14:57;;;;;;;8.17;5.90;;;9.10;41.70;;;;;;5076051;28;46407;-69
2023/05/01 01:17:31;;;;;;;14.47;6.90;;;9.10;41.70;;;;;;5083279;28;46378;-69
2023/05/01 01:20:11;;;;;;;8.77;6.23;;;9.10;41.80;;;;;;5081529;28;46330;-69
2023/05/01 01:22:42;;;;;;;18.43;6.20;;;9.00;42.10;;;;;;5076130;28;46492;-70
2023/05/01 01:25:45;;;;;;;8.50;5.80;;;8.90;42.00;;;;;;5081445;28;46413;-69
2023/05/01 01:28:32;;;;;;;8.67;6.10;;;9.00;42.30;;;;;;5079157;28;47043;-69
2023/05/01 01:31:03;;;;;;;7.47;5.60;;;8.90;42.10;;;;;;5081583;28;46340;-69
2023/05/01 01:34:13;;;;;;;8.77;6.13;;;8.90;42.20;;;;;;5079491;28;46270;-70
2023/05/01 01:36:48;;;;;;;10.40;6.23;;;8.90;42.40;;;;;;5070931;28;46564;-70
2023/05/01 01:39:36;;;;;;;14.43;7.37;;;8.90;42.20;;;;;;5080264;28;47174;-70
2023/05/01 01:42:08;;;;;;;12.57;6.47;;;8.90;42.20;;;;;;5077293;28;46434;-70
2023/05/01 01:44:38;;;;;;;11.33;5.80;;;8.90;42.20;;;;;;5081097;28;46391;-70
2023/05/01 01:47:07;;;;;;;8.87;5.90;;;8.90;42.30;;;;;;5094893;27;45999;-70
2023/05/01 01:49:36;;;;;;;8.27;6.10;;;8.90;42.50;;;;;;5078647;28;47062;-70
2023/05/01 01:52:04;;;;;;;10.30;6.07;;;8.90;43.30;;;;;;5078157;28;45826;-70
2023/05/01 01:54:36;;;;;;;11.43;6.43;;;8.80;42.80;;;;;;5079877;28;46258;-70
2023/05/01 01:57:05;;;;;;;9.57;6.20;;;8.80;42.80;;;;;;5079822;28;46463;-70
2023/05/01 01:59:33;;;;;;;9.40;5.80;;;8.80;42.90;;;;;;5079828;28;46470;-70
2023/05/01 02:02:00;;;;;;;9.43;6.40;;;8.80;43.10;;;;;;5076202;28;46747;-70
2023/05/01 02:04:27;;;;;;;8.57;5.60;;;8.80;43.00;;;;;;5079677;28;46640;-70
2023/05/01 02:06:57;;;;;;;8.53;5.63;;;8.80;43.10;;;;;;5080763;28;46436;-70
2023/05/01 02:09:25;;;;;;;9.30;6.70;;;8.80;43.00;;;;;;5079605;28;46552;-69
2023/05/01 02:11:54;;;;;;;8.70;5.90;;;8.80;43.00;;;;;;5075923;28;46442;-70
2023/05/01 02:14:23;;;;;;;9.10;5.67;;;8.80;43.30;;;;;;5080456;28;46465;-70
2023/05/01 02:16:49;;;;;;;12.17;6.13;;;8.70;43.20;;;;;;5079026;28;46442;-70
2023/05/01 02:19:16;;;;;;;10.27;5.80;;;8.70;43.30;;;;;;5081812;28;46684;-69
2023/05/01 02:21:43;;;;;;;8.20;5.40;;;8.70;43.40;;;;;;5078883;28;46305;-69
2023/05/01 02:24:11;;;;;;;9.20;5.93;;;8.70;43.60;;;;;;5082086;28;46567;-69
2023/05/01 02:26:44;;;;;;;11.33;6.00;;;8.60;43.70;;;;;;5079384;28;46602;-70
2023/05/01 02:29:10;;;;;;;6.90;5.40;;;8.60;43.70;;;;;;5077674;28;46570;-70
2023/05/01 02:31:35;;;;;;;8.40;6.30;;;8.60;43.80;;;;;;5077458;28;46385;-70
2023/05/01 02:34:01;;;;;;;9.97;6.50;;;8.70;43.80;;;;;;5077903;28;46432;-69
2023/05/01 02:36:27;;;;;;;9.50;5.40;;;8.60;43.60;;;;;;5079573;28;46574;-69
2023/05/01 02:38:53;;;;;;;9.90;5.80;;;8.60;43.60;;;;;;5080019;28;46991;-69
2023/05/01 02:41:21;;;;;;;6.73;5.30;;;8.60;43.50;;;;;;5078063;28;46784;-69
2023/05/01 02:43:52;;;;;;;9.27;6.27;;;8.70;43.60;;;;;;5079927;28;46627;-69
2023/05/01 02:46:19;;;;;;;10.20;5.67;;;8.70;43.40;;;;;;5084087;28;46207;-70
2023/05/01 02:48:45;;;;;;;11.90;6.17;;;8.70;43.50;;;;;;5076865;28;46519;-69
2023/05/01 02:51:12;;;;;;;7.87;5.97;;;8.70;43.50;;;;;;5078944;28;46436;-69
2023/05/01 02:53:39;;;;;;;7.87;5.33;;;8.70;43.30;;;;;;5080217;28;46469;-70
2023/05/01 02:56:06;;;;;;;7.67;5.47;;;8.70;43.30;;;;;;5081404;28;46333;-70
2023/05/01 02:58:33;;;;;;;7.13;5.40;;;8.70;43.30;;;;;;5078240;28;46058;-69
2023/05/01 03:00:58;;;;;;;9.37;5.10;;;8.60;43.40;;;;;;5079503;28;46549;-69
2023/05/01 03:03:24;;;;;;;6.83;4.63;;;8.50;43.60;;;;;;5077007;28;46444;-69
2023/05/01 03:05:50;;;;;;;7.70;5.30;;;8.40;43.90;;;;;;5079431;28;46482;-69
2023/05/01 03:08:16;;;;;;;8.33;5.70;;;8.40;44.30;;;;;;5078872;28;46821;-69
2023/05/01 03:10:42;;;;;;;9.60;6.23;;;8.30;45.00;;;;;;5080269;28;46448;-69
2023/05/01 03:13:09;;;;;;;10.03;6.70;;;8.30;44.70;;;;;;5077622;28;46463;-69
2023/05/01 03:15:35;;;;;;;7.87;6.40;;;8.30;44.60;;;;;;5077419;28;46556;-69
2023/05/01 03:18:01;;;;;;;8.13;5.77;;;8.40;44.60;;;;;;5077897;28;46715;-68
2023/05/01 03:20:26;;;;;;;7.43;5.33;;;8.40;44.60;;;;;;5079319;28;45792;-69
2023/05/01 03:22:52;;;;;;;7.80;5.70;;;8.40;44.70;;;;;;5079536;27;46344;-69
2023/05/01 03:25:18;;;;;;;6.80;5.33;;;8.30;44.80;;;;;;5078113;28;46353;-69
2023/05/01 03:27:43;;;;;;;9.57;6.57;;;8.30;45.00;;;;;;5077879;28;46444;-68
2023/05/01 03:30:09;;;;;;;8.97;6.13;;;8.30;45.00;;;;;;5080845;28;45792;-69
2023/05/01 03:32:35;;;;;;;8.80;6.27;;;8.30;44.90;;;;;;5077304;28;46416;-69
2023/05/01 03:35:01;;;;;;;11.33;6.30;;;8.30;45.00;;;;;;5079803;28;46622;-69
2023/05/01 03:37:27;;;;;;;10.67;6.60;;;8.30;45.10;;;;;;5078460;28;46413;-69
2023/05/01 03:39:53;;;;;;;8.60;6.20;;;8.30;45.20;;;;;;5078312;28;46377;-69
2023/05/01 03:42:18;;;;;;;11.53;6.03;;;8.30;45.40;;;;;;5078650;28;46723;-70
2023/05/01 03:44:44;;;;;;;9.33;6.60;;;8.20;45.80;;;;;;5079334;28;46630;-70
2023/05/01 03:47:10;;;;;;;10.60;6.50;;;8.30;45.60;;;;;;5078473;28;46370;-70
2023/05/01 03:49:35;;;;;;;8.73;6.07;;;8.30;45.60;;;;;;5081386;28;45830;-69
2023/05/01 03:52:01;;;;;;;8.83;6.50;;;8.40;45.30;;;;;;5077824;28;47169;-70
2023/05/01 03:54:27;;;;;;;13.23;6.80;;;8.50;45.30;;;;;;5077062;28;46431;-69
2023/05/01 03:56:53;;;;;;;9.90;6.70;;;8.50;45.30;;;;;;5079398;28;48948;-69
2023/05/01 03:59:18;;;;;;;9.37;6.97;;;8.60;45.20;;;;;;5078067;28;46420;-69
2023/05/01 04:01:44;;;;;;;9.30;6.40;;;8.60;45.20;;;;;;5076741;28;46468;-69
2023/05/01 04:04:10;;;;;;;10.13;6.60;;;8.60;45.30;;;;;;5078068;28;45839;-69
2023/05/01 04:06:36;;;;;;;10.77;6.20;;;8.60;45.20;;;;;;5074454;28;46995;-69
2023/05/01 04:09:02;;;;;;;7.77;5.10;;;8.50;45.40;;;;;;5081925;28;46458;-69
2023/05/01 04:11:28;;;;;;;7.03;5.20;;;8.50;45.60;;;;;;5079402;28;46399;-70
2023/05/01 04:13:53;;;;;;;8.50;6.07;;;8.50;45.80;;;;;;5080334;28;46365;-69
2023/05/01 04:16:19;;;;;;;7.60;6.27;;;8.50;46.00;;;;;;5077271;28;46475;-70
2023/05/01 04:18:44;;;;;;;12.50;6.50;;;8.60;45.90;;;;;;5078849;28;46383;-69
2023/05/01 04:21:10;;;;;;;8.20;5.63;;;8.60;45.90;;;;;;5077292;28;46415;-69
2023/05/01 04:23:35;;;;;;;10.80;6.23;;;8.70;46.10;;;;;;5077111;28;46609;-69
2023/05/01 04:26:02;;;;;;;8.33;6.33;;;8.70;46.00;;;;;;5078609;28;46658;-69
2023/05/01 04:28:29;;;;;;;11.97;8.03;;;8.80;46.00;;;;;;5077784;28;46335;-69
2023/05/01 04:30:56;;;;;;;11.13;7.30;;;8.90;45.80;;;;;;5077024;28;46508;-69
2023/05/01 04:33:22;;;;;;;9.80;7.77;;;8.90;45.70;;;;;;5079516;28;46456;-69
2023/05/01 04:35:48;;;;;;;9.93;7.00;;;9.00;45.70;;;;;;5076284;28;46056;-69
2023/05/01 04:38:13;;;;;;;8.80;6.87;;;9.20;45.20;;;;;;5079560;28;46321;-69
2023/05/01 04:40:39;;;;;;;7.83;5.80;;;9.40;46.20;;;;;;5075208;28;46377;-69
2023/05/01 04:43:04;;;;;;;8.30;5.97;;;9.50;44.60;;;;;;5079951;28;45957;-69
2023/05/01 04:45:31;;;;;;;8.70;6.83;;;9.50;44.50;;;;;;5080057;28;46657;-69
2023/05/01 04:47:56;;;;;;;7.23;5.60;;;9.60;44.50;;;;;;5079167;28;46418;-69
2023/05/01 04:50:22;;;;;;;7.30;5.43;;;9.70;44.50;;;;;;5080681;28;46401;-69
2023/05/01 04:52:48;;;;;;;9.70;6.43;;;9.70;44.40;;;;;;5072863;28;46440;-69
2023/05/01 04:55:14;;;;;;;9.07;6.17;;;9.80;44.40;;;;;;5074493;28;46630;-69
2023/05/01 04:57:39;;;;;;;16.93;6.37;;;9.90;44.40;;;;;;5078774;28;46479;-69
2023/05/01 05:00:06;;;;;;;10.23;6.27;;;9.90;44.50;;;;;;5074225;28;46522;-70
2023/05/01 05:02:32;;;;;;;8.50;6.53;;;10.00;43.60;;;;;;5074068;28;46392;-69
2023/05/01 05:04:58;;;;;;;8.17;6.23;;;10.10;43.60;;;;;;5081458;28;46502;-70
2023/05/01 05:07:23;;;;;;;9.63;6.70;;;10.10;43.80;;;;;;5078609;28;46465;-70
2023/05/01 05:09:49;;;;;;;10.57;7.00;;;10.10;44.00;;;;;;5078270;28;46447;-69
2023/05/01 05:12:15;;;;;;;10.80;6.60;;;10.10;44.00;;;;;;5076430;28;46353;-69
2023/05/01 05:14:41;;;;;;;11.13;6.00;;;10.10;44.10;;;;;;5076988;28;46412;-69
2023/05/01 05:17:10;;;;;;;10.87;6.33;;;10.20;44.10;;;;;;5077115;28;46370;-70
2023/05/01 05:19:36;;;;;;;13.10;8.17;;;10.20;44.20;;;;;;5078079;28;46451;-70
2023/05/01 05:22:02;;;;;;;49.20;26.00;;;10.20;44.30;;;;;;5077834;28;46540;-69
2023/05/01 05:24:28;;;;;;;29.13;16.43;;;10.20;44.50;;;;;;5083900;28;47017;-70
2023/05/01 05:26:54;;;;;;;21.13;11.77;;;10.20;44.10;;;;;;5079059;28;46447;-70
2023/05/01 05:29:20;;;;;;;11.47;7.83;;;10.40;44.00;;;;;;5074758;28;46363;-70
2023/05/01 05:31:46;;;;;;;9.10;6.30;;;10.40;43.60;;;;;;5073661;28;46364;-69
2023/05/01 05:34:12;;;;;;;7.80;5.97;;;10.50;43.60;;;;;;5077594;28;46374;-69
2023/05/01 05:36:37;;;;;;;11.30;6.50;;;10.50;43.50;;;;;;5076184;28;46378;-70
2023/05/01 05:39:03;;;;;;;13.83;6.33;;;10.50;44.90;;;;;;5077806;28;46407;-69
2023/05/01 05:41:29;;;;;;;9.30;6.37;;;10.60;43.60;;;;;;5073159;28;46569;-70
2023/05/01 05:43:54;;;;;;;7.70;5.93;;;10.50;44.00;;;;;;5075247;28;46606;-69
2023/05/01 05:46:20;;;;;;;10.80;6.10;;;10.50;44.10;;;;;;5075241;28;46443;-69
2023/05/01 05:48:46;;;;;;;9.70;6.37;;;10.40;43.90;;;;;;5079494;28;46319;-69
2023/05/01 05:51:11;;;;;;;9.17;5.60;;;10.50;43.80;;;;;;5081045;28;46669;-69
2023/05/01 05:53:37;;;;;;;6.83;5.40;;;10.60;43.30;;;;;;5077338;28;46352;-69
2023/05/01 05:56:03;;;;;;;18.87;12.27;;;10.60;43.20;;;;;;5082855;28;46414;-68
2023/05/01 05:58:29;;;;;;;1105.70;552.97;;;10.60;43.20;;;;;;5081143;28;46368;-69
2023/05/01 06:00:55;;;;;;;936.20;465.53;;;10.60;43.10;;;;;;5079311;28;46613;-69
2023/05/01 06:03:20;;;;;;;447.07;166.40;;;10.50;43.10;;;;;;5078527;27;46419;-69
2023/05/01 06:05:46;;;;;;;677.83;350.37;;;10.60;43.20;;;;;;5079810;28;46400;-69
2023/05/01 06:08:12;;;;;;;621.50;358.03;;;10.60;42.90;;;;;;5078141;28;46653;-69
2023/05/01 06:10:40;;;;;;;165.37;84.93;;;10.70;42.90;;;;;;5078418;28;46626;-68
2023/05/01 06:13:07;;;;;;;15.80;8.00;;;10.70;42.90;;;;;;5075389;28;47046;-68
2023/05/01 06:15:33;;;;;;;11.03;6.97;;;10.60;43.10;;;;;;5078345;28;45891;-70
2023/05/01 06:17:59;;;;;;;31.07;17.80;;;10.60;43.30;;;;;;5079016;28;46337;-70
2023/05/01 06:20:25;;;;;;;13.07;7.20;;;10.50;43.40;;;;;;5079498;28;46421;-69
2023/05/01 06:22:51;;;;;;;15.27;7.30;;;10.50;43.40;;;;;;5073246;28;47037;-69
2023/05/01 06:25:16;;;;;;;10.07;7.17;;;10.60;43.40;;;;;;5078743;28;46237;-69
2023/05/01 06:27:42;;;;;;;10.97;6.67;;;10.60;43.20;;;;;;5076375;28;46456;-69
2023/05/01 06:30:08;;;;;;;10.50;7.43;;;10.50;43.50;;;;;;5078791;28;46459;-69
2023/05/01 06:32:34;;;;;;;10.27;7.47;;;10.40;43.80;;;;;;5078160;28;48919;-69
2023/05/01 06:35:00;;;;;;;12.37;7.53;;;10.40;44.00;;;;;;5079732;28;46378;-69
2023/05/01 06:37:25;;;;;;;14.00;7.10;;;10.40;43.90;;;;;;5079330;28;46448;-69
2023/05/01 06:39:51;;;;;;;18.03;6.70;;;10.30;44.20;;;;;;5078414;28;46572;-69
2023/05/01 06:42:16;;;;;;;13.70;6.90;;;10.30;44.10;;;;;;5076546;28;48117;-69
2023/05/01 06:44:42;;;;;;;12.23;7.73;;;10.40;44.00;;;;;;5078471;28;46567;-69
2023/05/01 06:47:08;;;;;;;9.20;6.97;;;10.30;44.20;;;;;;5081257;28;46422;-68
2023/05/01 06:49:34;;;;;;;9.67;6.90;;;10.30;44.10;;;;;;5078825;28;46396;-69
2023/05/01 06:52:00;;;;;;;11.23;7.80;;;10.50;43.70;;;;;;5077580;28;46861;-69
2023/05/01 06:54:26;;;;;;;12.07;7.67;;;10.70;43.30;;;;;;5079685;28;46302;-69
2023/05/01 06:56:54;;;;;;;12.40;7.67;;;10.80;42.80;;;;;;5076534;27;46464;-69
2023/05/01 06:59:19;;;;;;;10.90;8.03;;;10.90;42.70;;;;;;5076426;28;46485;-69
2023/05/01 07:01:45;;;;;;;10.10;7.00;;;11.00;42.50;;;;;;5079129;28;46558;-69
2023/05/01 07:04:11;;;;;;;10.87;7.60;;;11.20;42.50;;;;;;5080937;28;46233;-70
2023/05/01 07:06:36;;;;;;;12.00;7.60;;;11.30;42.20;;;;;;5077560;28;46364;-70
2023/05/01 07:09:03;;;;;;;9.57;7.57;;;11.30;42.30;;;;;;5079864;28;46557;-70
2023/05/01 07:11:29;;;;;;;12.33;8.50;;;11.30;42.30;;;;;;5079758;28;46986;-70
2023/05/01 07:13:55;;;;;;;12.00;8.73;;;11.30;42.20;;;;;;5080646;28;46397;-70
2023/05/01 07:16:20;;;;;;;12.60;8.83;;;11.40;41.90;;;;;;5079546;28;46387;-69
2023/05/01 07:18:46;;;;;;;11.37;8.37;;;11.50;41.60;;;;;;5080340;28;46273;-70
2023/05/01 07:21:12;;;;;;;10.43;7.93;;;11.60;41.40;;;;;;5077187;28;47095;-70
2023/05/01 07:23:38;;;;;;;10.03;7.67;;;11.80;41.30;;;;;;5078388;28;46652;-70
2023/05/01 07:26:04;;;;;;;13.50;8.83;;;11.90;41.00;;;;;;5078333;28;46342;-69
2023/05/01 07:28:30;;;;;;;10.90;8.30;;;12.00;40.30;;;;;;5079353;28;46472;-70
2023/05/01 07:30:56;;;;;;;10.20;7.60;;;12.20;40.40;;;;;;5078331;28;47026;-68
2023/05/01 07:33:22;;;;;;;14.00;11.63;;;12.20;40.50;;;;;;5078655;28;46504;-70
2023/05/01 07:35:48;;;;;;;10.77;8.33;;;12.30;40.50;;;;;;5078469;28;46568;-70
2023/05/01 07:38:15;;;;;;;11.40;7.53;;;12.30;40.50;;;;;;5077967;28;46468;-69
2023/05/01 07:40:40;;;;;;;9.50;7.47;;;12.20;40.50;;;;;;5078357;28;46579;-69
2023/05/01 07:43:09;;;;;;;11.33;8.27;;;12.20;40.50;;;;;;5077725;28;46431;-69
2023/05/01 07:45:35;;;;;;;11.67;7.83;;;12.30;40.50;;;;;;5078062;28;45868;-69
2023/05/01 07:48:01;;;;;;;10.93;8.20;;;12.40;40.60;;;;;;5079143;28;46544;-71
2023/05/01 07:50:30;;;;;;;13.53;9.10;;;12.40;40.60;;;;;;5078819;28;46439;-69
2023/05/01 07:52:56;;;;;;;14.27;9.37;;;12.50;40.70;;;;;;5076704;28;46364;-69
2023/05/01 07:55:22;;;;;;;11.50;7.60;;;12.60;40.80;;;;;;5078754;28;46342;-70
2023/05/01 07:57:48;;;;;;;11.23;9.00;;;12.60;40.70;;;;;;5071956;28;46766;-72
2023/05/01 08:00:14;;;;;;;10.43;7.50;;;12.60;40.50;;;;;;5076809;28;46429;-71
2023/05/01 08:02:40;;;;;;;13.00;7.90;;;12.70;40.60;;;;;;5073505;28;46440;-71
2023/05/01 08:05:06;;;;;;;10.70;7.47;;;12.80;41.00;;;;;;5075122;28;46939;-70
2023/05/01 08:07:31;;;;;;;10.20;7.47;;;12.90;41.10;;;;;;5076003;28;46621;-72
2023/05/01 08:09:59;;;;;;;12.40;8.60;;;12.90;40.50;;;;;;5075870;28;46527;-72
2023/05/01 08:12:25;;;;;;;13.10;7.70;;;12.90;41.00;;;;;;5074759;28;46491;-72
2023/05/01 08:14:51;;;;;;;9.13;7.50;;;12.90;40.70;;;;;;5077056;28;46352;-72
2023/05/01 08:17:16;;;;;;;10.17;6.90;;;13.00;41.20;;;;;;5077072;28;46500;-71
2023/05/01 08:19:42;;;;;;;10.30;7.10;;;13.20;41.30;;;;;;5075300;28;45943;-72
2023/05/01 08:22:08;;;;;;;13.00;7.53;;;13.00;41.10;;;;;;5074316;28;46390;-73
2023/05/01 08:24:33;;;;;;;9.63;7.47;;;13.00;41.20;;;;;;5076282;28;45944;-71
2023/05/01 08:26:59;;;;;;;19.20;9.97;;;13.00;41.10;;;;;;5078349;28;46553;-73
2023/05/01 08:29:25;;;;;;;10.27;6.73;;;13.10;41.30;;;;;;5077785;28;46709;-71
2023/05/01 08:31:50;;;;;;;10.80;7.77;;;13.10;41.30;;;;;;5073018;28;46648;-72
2023/05/01 08:34:16;;;;;;;11.63;7.07;;;13.10;41.40;;;;;;5079219;28;46759;-71
2023/05/01 08:36:42;;;;;;;12.47;7.97;;;13.10;41.30;;;;;;5078124;28;46476;-74
2023/05/01 08:39:07;;;;;;;12.20;8.43;;;13.20;41.40;;;;;;5078656;28;46775;-70
2023/05/01 08:41:34;;;;;;;11.00;8.10;;;13.20;41.30;;;;;;5073876;28;46443;-74
2023/05/01 08:44:03;;;;;;;11.63;8.03;;;13.30;41.40;;;;;;5074946;27;46530;-73
2023/05/01 08:46:43;;;;;;;12.50;8.73;;;13.30;41.50;;;;;;5075715;28;46358;-72
2023/05/01 08:49:11;;;;;;;10.67;7.73;;;13.30;41.40;;;;;;5077201;28;47133;-71
2023/05/01 08:51:38;;;;;;;12.10;8.37;;;13.30;41.40;;;;;;5074615;28;45812;-72
2023/05/01 08:54:07;;;;;;;9.70;7.90;;;13.30;41.50;;;;;;5077028;28;46477;-71
2023/05/01 08:56:35;;;;;;;14.97;9.13;;;13.30;41.50;;;;;;5073810;28;46488;-71
2023/05/01 08:59:04;;;;;;;10.90;7.70;;;13.40;41.50;;;;;;5074437;28;48391;-69
2023/05/01 09:01:31;;;;;;;12.80;8.23;;;13.40;41.60;;;;;;5071443;28;46306;-69
2023/05/01 09:04:01;;;;;;;12.20;8.70;;;13.40;41.50;;;;;;5072556;28;46573;-70
2023/05/01 09:06:28;;;;;;;24.30;13.60;;;13.50;41.60;;;;;;5074592;27;46778;-70
2023/05/01 09:08:54;;;;;;;23.13;16.27;;;13.40;41.60;;;;;;5075760;28;46916;-70
2023/05/01 09:11:21;;;;;;;12.93;9.93;;;13.60;41.70;;;;;;5075504;28;46835;-71
2023/05/01 09:13:47;;;;;;;13.60;10.10;;;13.80;41.90;;;;;;5073918;28;46707;-70
2023/05/01 09:16:13;;;;;;;12.73;9.10;;;13.90;41.10;;;;;;5076679;28;46635;-70
2023/05/01 09:18:39;;;;;;;11.60;8.13;;;14.00;41.00;;;;;;5075285;28;48043;-70
2023/05/01 09:21:05;;;;;;;12.07;8.40;;;14.10;40.90;;;;;;5076408;28;46562;-72
2023/05/01 09:23:31;;;;;;;11.10;9.07;;;14.00;41.10;;;;;;5080539;28;46383;-71
2023/05/01 09:25:59;;;;;;;14.40;10.30;;;14.00;41.10;;;;;;5079943;28;46363;-70
2023/05/01 09:28:58;;;;;;;20.93;14.40;;;14.10;41.30;;;;;;5080033;28;46960;-70
2023/05/01 09:31:31;;;;;;;13.43;9.97;;;14.20;40.90;;;;;;5077044;27;46657;-70
2023/05/01 09:34:00;;;;;;;18.23;9.73;;;14.30;40.80;;;;;;5077537;28;45773;-70
2023/05/01 09:36:29;;;;;;;14.33;9.70;;;14.40;40.80;;;;;;5079340;28;46655;-71
2023/05/01 09:39:01;;;;;;;13.23;9.83;;;14.40;40.50;;;;;;5079054;28;46550;-71
2023/05/01 09:41:28;;;;;;;13.83;9.23;;;14.40;40.90;;;;;;5081426;28;46384;-70
2023/05/01 09:43:57;;;;;;;12.83;9.10;;;14.20;41.40;;;;;;5075241;28;46339;-70
2023/05/01 09:46:24;;;;;;;16.70;10.27;;;14.30;41.60;;;;;;5080629;28;46615;-71
2023/05/01 09:49:02;;;;;;;12.37;9.00;;;14.40;41.50;;;;;;5077478;28;47360;-71
2023/05/01 09:51:31;;;;;;;15.17;9.30;;;14.50;41.30;;;;;;5080591;28;46381;-71
2023/05/01 09:53:59;;;;;;;13.53;9.67;;;14.60;41.20;;;;;;5077006;28;46418;-71
2023/05/01 09:56:30;;;;;;;14.50;9.53;;;14.80;41.00;;;;;;5079517;28;45928;-70
2023/05/01 09:58:58;;;;;;;12.17;9.60;;;14.70;40.90;;;;;;5076188;28;46404;-71
2023/05/01 10:01:41;;;;;;;16.60;10.03;;;14.70;40.90;;;;;;5079594;28;46527;-72
2023/05/01 10:04:08;;;;;;;12.27;9.60;;;14.90;40.70;;;;;;5079557;28;46657;-69
2023/05/01 10:06:35;;;;;;;12.50;8.83;;;15.00;40.40;;;;;;5078737;28;46784;-69
2023/05/01 10:09:02;;;;;;;14.40;9.47;;;15.00;40.50;;;;;;5076408;28;48104;-69
2023/05/01 10:11:28;;;;;;;12.90;8.80;;;15.00;40.60;;;;;;5078584;28;46358;-69
2023/05/01 10:14:08;;;;;;;12.37;9.30;;;14.90;41.00;;;;;;5073543;28;46166;-69
2023/05/01 10:16:35;;;;;;;16.63;10.27;;;14.90;40.50;;;;;;5079179;28;46813;-68
2023/05/01 10:19:02;;;;;;;34.60;16.03;;;15.00;40.20;;;;;;5075820;28;46462;-68
2023/05/01 10:21:27;;;;;;;15.77;10.63;;;15.10;40.20;;;;;;5079863;28;46483;-68
2023/05/01 10:23:54;;;;;;;62.87;25.07;;;15.30;39.90;;;;;;5076238;28;46382;-69
2023/05/01 10:26:20;;;;;;;50.83;20.70;;;15.20;39.90;;;;;;5080085;28;46352;-68
2023/05/01 10:28:48;;;;;;;43.57;16.20;;;15.10;40.10;;;;;;5078568;28;47001;-68
2023/05/01 10:31:15;;;;;;;135.40;46.80;;;15.00;40.40;;;;;;5080341;27;46448;-68
2023/05/01 10:33:43;;;;;;;27.80;17.93;;;15.10;40.40;;;;;;5096043;27;46318;-68
2023/05/01 10:36:17;;;;;;;14.80;9.63;;;15.10;40.20;;;;;;5078307;27;46787;-69
2023/05/01 10:38:47;;;;;;;11.97;9.17;;;15.20;39.90;;;;;;5076922;28;46711;-68
2023/05/01 10:41:14;;;;;;;11.43;8.57;;;15.40;39.50;;;;;;5077480;28;46675;-68
2023/05/01 10:43:40;;;;;;;13.50;8.63;;;15.50;39.40;;;;;;5075797;28;46651;-68
2023/05/01 10:46:20;;;;;;;11.70;8.97;;;15.40;39.50;;;;;;5079736;28;46419;-69
2023/05/01 10:48:45;;;;;;;11.80;8.37;;;15.60;39.10;;;;;;5079234;28;47062;-68
2023/05/01 10:51:19;;;;;;;11.33;7.93;;;15.70;39.10;;;;;;5076797;28;46767;-69
2023/05/01 10:53:46;;;;;;;11.90;8.57;;;15.60;39.20;;;;;;5078660;28;46794;-69
2023/05/01 10:56:24;;;;;;;11.30;7.57;;;15.40;39.60;;;;;;5077604;28;46550;-69
2023/05/01 10:58:56;;;;;;;13.00;8.47;;;15.60;39.40;;;;;;5077980;28;46982;-68
2023/05/01 11:01:28;;;;;;;14.90;9.53;;;15.70;39.10;;;;;;5077089;28;46482;-69
2023/05/01 11:03:55;;;;;;;12.63;8.80;;;15.70;39.30;;;;;;5076834;28;45799;-69
2023/05/01 11:06:22;;;;;;;11.80;8.03;;;15.60;39.60;;;;;;5071892;27;46514;-69
2023/05/01 11:08:47;;;;;;;10.90;8.43;;;15.70;39.20;;;;;;5077135;27;46236;-69
2023/05/01 11:11:19;;;;;;;10.57;8.20;;;15.70;38.90;;;;;;5077029;28;46506;-69
2023/05/01 11:14:04;;;;;;;12.27;8.10;;;15.70;39.20;;;;;;5076972;28;46479;-70
2023/05/01 11:16:42;;;;;;;13.53;9.03;;;15.50;39.50;;;;;;5077453;28;46455;-69
2023/05/01 11:19:33;;;;;;;14.20;9.67;;;15.40;39.60;;;;;;5076546;28;46349;-69
2023/05/01 11:21:59;;;;;;;11.50;8.10;;;15.60;39.20;;;;;;5076578;28;46701;-69
2023/05/01 11:24:34;;;;;;;10.77;8.50;;;15.70;39.00;;;;;;5077063;28;46437;-68
2023/05/01 11:27:00;;;;;;;15.27;8.80;;;16.00;38.30;;;;;;5076288;28;46339;-69
2023/05/01 11:29:33;;;;;;;12.50;9.50;;;16.30;37.70;;;;;;5078391;28;47145;-69
2023/05/01 11:31:59;;;;;;;15.50;8.97;;;16.20;37.70;;;;;;5074808;28;46435;-68
2023/05/01 11:34:25;;;;;;;11.00;8.80;;;16.30;37.40;;;;;;5077406;28;46444;-69
2023/05/01 11:36:52;;;;;;;10.53;7.73;;;16.50;37.40;;;;;;5077895;28;46515;-68
2023/05/01 11:39:18;;;;;;;13.47;8.40;;;16.30;37.60;;;;;;5079038;28;46549;-69
2023/05/01 11:41:45;;;;;;;11.37;8.87;;;16.40;37.20;;;;;;5073443;28;46527;-68
2023/05/01 11:44:15;;;;;;;13.00;8.57;;;16.60;37.20;;;;;;5073702;27;45859;-68
2023/05/01 11:46:41;;;;;;;17.60;10.00;;;16.70;36.80;;;;;;5076442;28;46675;-69
2023/05/01 11:49:08;;;;;;;11.17;7.50;;;16.90;36.30;;;;;;5073864;27;47475;-68
2023/05/01 11:51:34;;;;;;;11.10;8.53;;;16.80;36.40;;;;;;5077006;28;46662;-68
2023/05/01 11:54:06;;;;;;;13.00;9.10;;;16.80;36.40;;;;;;5074620;28;46522;-68
2023/05/01 11:56:33;;;;;;;10.90;8.17;;;16.70;36.60;;;;;;5075272;28;46436;-68
2023/05/01 11:59:08;;;;;;;11.07;8.40;;;16.30;37.00;;;;;;5076099;28;46419;-68
2023/05/01 12:01:36;;;;;;;9.77;8.07;;;16.20;37.80;;;;;;5075975;28;46505;-68
2023/05/01 12:04:02;;;;;;;16.07;8.40;;;16.20;37.80;;;;;;5074963;28;46403;-68
2023/05/01 12:06:44;;;;;;;14.70;8.67;;;16.30;37.70;;;;;;5075874;28;46663;-69
2023/05/01 12:09:26;;;;;;;10.50;7.97;;;16.30;37.40;;;;;;5078525;28;47090;-69
2023/05/01 12:11:52;;;;;;;12.20;8.63;;;16.30;37.40;;;;;;5076997;28;46400;-68
2023/05/01 12:14:20;;;;;;;14.53;8.67;;;16.40;37.30;;;;;;5077082;28;45825;-68
2023/05/01 12:16:46;;;;;;;11.20;7.60;;;16.30;37.40;;;;;;5078036;28;46489;-70
2023/05/01 12:19:13;;;;;;;10.50;8.13;;;16.30;37.30;;;;;;5074354;28;46960;-69
2023/05/01 12:21:39;;;;;;;14.03;8.40;;;16.10;37.40;;;;;;5075660;27;46324;-71
2023/05/01 12:24:09;;;;;;;12.10;9.17;;;16.10;37.60;;;;;;5077407;28;46506;-70
2023/05/01 12:26:35;;;;;;;10.30;8.27;;;16.20;37.50;;;;;;5075577;28;46421;-70
2023/05/01 12:29:03;;;;;;;17.10;9.30;;;16.10;37.50;;;;;;5076897;28;46358;-71
2023/05/01 12:31:30;;;;;;;10.60;8.50;;;16.00;37.90;;;;;;5076583;28;46353;-72
2023/05/01 12:34:06;;;;;;;13.03;9.47;;;16.10;37.70;;;;;;5074422;28;46444;-70
2023/05/01 12:36:36;;;;;;;12.80;9.63;;;16.40;37.20;;;;;;5075605;28;46335;-71
2023/05/01 12:39:04;;;;;;;12.93;9.40;;;16.60;37.20;;;;;;5075093;28;46640;-72
2023/05/01 12:41:44;;;;;;;10.60;8.70;;;16.80;36.70;;;;;;5072917;28;46601;-72
2023/05/01 12:44:26;;;;;;;11.00;8.13;;;16.90;36.50;;;;;;5072816;28;46446;-71
2023/05/01 12:47:03;;;;;;;10.50;7.70;;;17.10;36.00;;;;;;5075011;28;46579;-73